• Join FlightAware (Why Join?)
  • Login
  • US Flag 
12:05PM EDT


 

Airport Tracker/Info


-or-


 

Live Flight TrackerFlight Track Log ✈ N762NC ✈ 20-Aug-2013 ✈ KATL - KVPS

Flight Track Log - Related Links

Times and Time Zones

All times are in EDT time to prevent confusion due to time zone crossing. See the N762NC flight status page for this flight to view local times or setup timezone preferences in your user account.

Time Position Orientation Groundspeed Altitude Reporting Facility
EDT Latitude Longitude Course Direction KTS MPH feet Rate Location/Type
11:26AM 33.6333 -84.3833 228° Southwest 174 200 2,300  Level Atlanta TRACON
11:27AM 33.6000 -84.3167 121° Southeast 256 295 4,300 2,400 Climbing Atlanta TRACON
11:28AM 33.5500 -84.3000 164° South 269 310 6,900 2,220 Climbing Atlanta TRACON
11:29AM 33.2354 -84.4167 180° South  Level FlightAware Approximate
11:30AM 33.1359 -84.4167 180° South  Level FlightAware Approximate
11:31AM 33.0364 -84.4167 180° South  Level FlightAware Approximate
11:31AM 33.3661 -84.3200 185° South 292 336 11,600  Level Atlanta Center
11:32AM 32.9692 -84.5024 228° Southwest  Level FlightAware Approximate
11:32AM 33.2825 -84.3419 192° South 322 371 12,300  Level Atlanta Center
11:33AM 33.1844 -84.3689 193° South 356 410 14,800 2,100 Climbing Atlanta Center
11:34AM 33.0842 -84.3983 194° South 363 418 16,600 1,680 Climbing Atlanta Center
11:35AM 32.9817 -84.4300 195° South 372 428 18,200 1,620 Climbing Atlanta Center
11:36AM 32.8772 -84.4592 193° South 377 434 19,900 1,980 Climbing Atlanta Center
11:37AM 32.7603 -84.4883 192° South 377 434 22,200 1,620 Climbing Atlanta Center
11:38AM 32.6578 -84.5200 195° South 382 440 23,200 1,140 Climbing Atlanta Center
11:39AM 32.5492 -84.5539 195° South 388 447 24,500 1,200 Climbing Atlanta Center
11:40AM 32.4589 -84.6344 217° Southwest 394 453 25,700 1,140 Climbing Atlanta Center
11:41AM 32.3689 -84.7175 218° Southwest 406 467 26,800 900 Climbing Atlanta Center
11:42AM 32.2764 -84.8028 218° Southwest 420 483 27,500 600 Climbing Atlanta Center
11:43AM 32.1842 -84.8881 218° Southwest 425 489 28,100 240 Climbing Atlanta Center
11:44AM 32.0811 -84.9850 219° Southwest 430 495 28,000 -60 Descending Atlanta Center
11:46AM 31.8658 -85.1894 219° Southwest 462 532 28,000 -180 Level Jacksonville Center
11:47AM 31.7681 -85.2847 220° Southwest 457 526 27,500 -900 Descending Jacksonville Center
11:48AM 31.6722 -85.3825 221° Southwest 462 532 26,200 -1,380 Descending Jacksonville Center
11:49AM 31.5806 -85.4847 224° Southwest 462 532 24,800 -1,200 Descending Jacksonville Center
11:50AM 31.5031 -85.5997 232° Southwest 462 532 23,800 -960 Descending Jacksonville Center
11:51AM 31.4253 -85.7142 231° Southwest 462 532 22,900 -840 Descending Jacksonville Center
11:52AM 31.3475 -85.8286 232° Southwest 457 526 22,200 -1,560 Descending Jacksonville Center
11:53AM 31.2761 -85.9358 232° Southwest 452 520 19,800 -2,760 Descending Jacksonville Center
11:54AM 31.2067 -86.0428 233° Southwest 436 502 16,700 -2,940 Descending Jacksonville Center
11:55AM 31.1353 -86.1472 231° Southwest 424 488 14,000 -1,860 Descending Jacksonville Center
11:56AM 31.0639 -86.2417 229° Southwest 411 473 13,000 -900 Descending Jacksonville Center
11:57AM 30.9861 -86.3358 226° Southwest 393 452 12,300 -600 Descending Jacksonville Center
11:58AM 30.8789 -86.3658 194° South 366 421 11,800 -660 Descending Jacksonville Center
11:59AM 30.7906 -86.3892 193° South 355 409 11,000 -1,200 Descending Jacksonville Center
12:00PM 30.7183 -86.4350 209° Southwest 324 373 9,500 -1,740 Descending Jacksonville Center
12:01PM 30.6464 -86.4733 205° Southwest 301 346 7,600 -1,080 Descending Jacksonville Center
12:02PM 30.5831 -86.4903 193° South 269 310 7,400 -1,320 Descending Jacksonville Center
12:03PM 30.5403 -86.5297 218° Southwest 205 236 5,000 -1,980 Descending Jacksonville Center
12:04PM 30.5614 -86.5906 292° West 158 182 3,500 -1,800 Descending Jacksonville Center
12:05PM 30.5275 -86.6064 202° Southwest 136 157 1,500 -840 Descending Jacksonville Center
12:06PM 30.5175 -86.5914 128° Southeast 115 132 1,900 360 Climbing Jacksonville Center